Time;durP1;ratioP1;P1;durP2;ratioP2;P2;SDS_P1;SDS_P2;PMS_P1;PMS_P2;Temp;Humidity;BMP_temperature;BMP_pressure;BME280_temperature;BME280_humidity;BME280_pressure;Samples;Min_cycle;Max_cycle;Signal;HPM_P1;HPM_P2
2022/02/13 00:00:15;;;;;;;4.13;2.78;;;;;8.40;101663.00;;;;5083920;28;20210;-79
2022/02/13 00:02:44;;;;;;;4.18;2.75;;;;;8.40;101656.00;;;;5071626;28;20396;-79
2022/02/13 00:05:12;;;;;;;4.95;3.10;;;;;8.40;101651.00;;;;5073976;28;20202;-79
2022/02/13 00:07:40;;;;;;;3.50;2.47;;;;;8.40;101650.00;;;;5085134;28;20210;-79
2022/02/13 00:10:10;;;;;;;4.30;3.25;;;;;8.30;101649.00;;;;5076676;28;20207;-79
2022/02/13 00:12:37;;;;;;;4.70;2.78;;;;;8.30;101651.00;;;;5085215;28;20197;-79
2022/02/13 00:15:08;;;;;;;4.97;3.05;;;;;8.30;101649.00;;;;5069725;28;20673;-79
2022/02/13 00:17:35;;;;;;;5.63;3.00;;;;;8.30;101648.00;;;;5068787;28;20206;-79
2022/02/13 00:20:05;;;;;;;5.05;2.90;;;;;8.30;101637.00;;;;5082151;28;20210;-79
2022/02/13 00:22:32;;;;;;;5.38;3.03;;;;;8.30;101634.00;;;;5077584;28;20798;-79
2022/02/13 00:24:59;;;;;;;3.88;2.65;;;;;8.20;101629.00;;;;5071740;28;20194;-79
2022/02/13 00:27:27;;;;;;;6.75;3.17;;;;;8.20;101638.00;;;;5069290;28;20298;-80
2022/02/13 00:29:54;;;;;;;4.22;2.45;;;;;8.20;101636.00;;;;5068914;28;20226;-79
2022/02/13 00:32:25;;;;;;;3.75;2.78;;;;;8.10;101632.00;;;;5082286;28;20632;-80
2022/02/13 00:34:52;;;;;;;6.25;3.15;;;;;8.20;101633.00;;;;5086478;28;20206;-79
2022/02/13 00:37:19;;;;;;;5.72;2.55;;;;;8.10;101637.00;;;;5070112;28;20227;-79
2022/02/13 00:39:47;;;;;;;5.57;2.83;;;;;8.10;101623.00;;;;5070076;28;20673;-80
2022/02/13 00:42:14;;;;;;;6.18;3.70;;;;;8.10;101625.00;;;;5075197;28;20285;-79
2022/02/13 00:44:41;;;;;;;5.13;3.30;;;;;8.10;101619.00;;;;5084588;28;20202;-79
2022/02/13 00:47:09;;;;;;;6.90;2.80;;;;;8.00;101600.00;;;;5078172;28;20301;-80
2022/02/13 00:49:37;;;;;;;4.65;2.38;;;;;8.00;101602.00;;;;5078244;28;20318;-79
2022/02/13 00:52:05;;;;;;;5.75;3.05;;;;;8.00;101596.00;;;;5082588;28;20198;-79
2022/02/13 00:54:33;;;;;;;3.63;2.75;;;;;8.00;101596.00;;;;5081756;28;20290;-79
2022/02/13 00:57:00;;;;;;;4.70;2.65;;;;;8.00;101591.00;;;;5079915;28;20206;-80
2022/02/13 00:59:28;;;;;;;4.68;2.88;;;;;7.90;101590.00;;;;5068778;28;20264;-79
2022/02/13 01:01:55;;;;;;;6.15;3.45;;;;;7.90;101580.00;;;;5068277;28;20198;-79
2022/02/13 01:04:23;;;;;;;4.40;2.60;;;;;7.90;101572.00;;;;5068208;28;20205;-79
2022/02/13 01:06:51;;;;;;;5.95;3.58;;;;;7.90;101567.00;;;;5068627;28;20210;-79
2022/02/13 01:09:19;;;;;;;7.28;3.22;;;;;7.90;101551.00;;;;5072970;28;20222;-79
2022/02/13 01:11:46;;;;;;;4.10;2.38;;;;;7.80;101546.00;;;;5071983;28;20244;-79
2022/02/13 01:14:14;;;;;;;5.22;3.17;;;;;7.80;101540.00;;;;5068614;28;20206;-79
2022/02/13 01:16:41;;;;;;;3.70;2.75;;;;;7.80;101532.00;;;;5069376;28;20244;-78
2022/02/13 01:19:09;;;;;;;11.02;2.92;;;;;7.80;101521.00;;;;5074623;28;20202;-79
2022/02/13 01:21:36;;;;;;;3.92;2.45;;;;;7.80;101545.00;;;;5075681;28;20216;-79
2022/02/13 01:24:05;;;;;;;6.10;2.97;;;;;7.80;101552.00;;;;5074889;28;20225;-79
2022/02/13 01:26:33;;;;;;;4.95;3.25;;;;;7.80;101543.00;;;;5075284;28;20974;-78
2022/02/13 01:29:01;;;;;;;3.80;2.95;;;;;7.80;101539.00;;;;5075272;28;20233;-79
2022/02/13 01:31:28;;;;;;;5.20;3.00;;;;;7.80;101539.00;;;;5078175;28;20285;-79
2022/02/13 01:33:56;;;;;;;5.72;3.15;;;;;7.80;101536.00;;;;5072549;28;20717;-79
2022/02/13 01:36:23;;;;;;;5.13;3.15;;;;;7.80;101533.00;;;;5067399;28;20215;-79
2022/02/13 01:38:50;;;;;;;6.72;2.85;;;;;7.80;101517.00;;;;5067841;28;20226;-79
2022/02/13 01:41:19;;;;;;;4.50;3.10;;;;;7.80;101515.00;;;;5071638;28;20191;-79
2022/02/13 01:43:46;;;;;;;4.18;2.85;;;;;7.80;101509.00;;;;5067525;28;20198;-79
2022/02/13 01:46:13;;;;;;;4.60;3.35;;;;;7.90;101505.00;;;;5070066;28;20194;-79
2022/02/13 01:48:40;;;;;;;5.88;3.05;;;;;7.90;101503.00;;;;5070391;28;20190;-79
2022/02/13 01:51:08;;;;;;;4.97;2.83;;;;;7.90;101493.00;;;;5076001;28;20205;-79
2022/02/13 01:53:36;;;;;;;6.10;3.15;;;;;7.90;101501.00;;;;5081582;28;20692;-79
2022/02/13 01:56:03;;;;;;;4.03;2.45;;;;;8.00;101492.00;;;;5076306;28;20201;-79
2022/02/13 01:58:32;;;;;;;6.10;3.22;;;;;8.00;101489.00;;;;5066783;28;20203;-79
2022/02/13 02:00:59;;;;;;;5.45;3.03;;;;;8.00;101487.00;;;;5066893;28;20289;-79
2022/02/13 02:03:26;;;;;;;7.20;3.15;;;;;8.00;101480.00;;;;5068311;28;20198;-79
2022/02/13 02:05:54;;;;;;;7.47;3.03;;;;;8.10;101483.00;;;;5074241;28;20298;-79
2022/02/13 02:08:21;;;;;;;4.40;2.97;;;;;8.10;101484.00;;;;5070377;28;20892;-78
2022/02/13 02:10:50;;;;;;;5.60;3.05;;;;;8.10;101469.00;;;;5081699;28;20229;-78
2022/02/13 02:13:17;;;;;;;4.20;2.78;;;;;8.10;101474.00;;;;5066675;28;20234;-78
2022/02/13 02:15:46;;;;;;;4.40;2.80;;;;;8.10;101465.00;;;;5071496;28;20230;-78
2022/02/13 02:18:13;;;;;;;5.07;2.97;;;;;8.10;101466.00;;;;5066082;28;20205;-78
2022/02/13 02:20:42;;;;;;;4.40;2.80;;;;;8.10;101465.00;;;;5071840;28;20926;-78
2022/02/13 02:23:11;;;;;;;5.68;2.90;;;;;8.20;101462.00;;;;5065130;28;20203;-78
2022/02/13 02:25:39;;;;;;;4.38;2.65;;;;;8.20;101456.00;;;;5067079;28;20195;-78
2022/02/13 02:28:06;;;;;;;7.10;3.15;;;;;8.20;101452.00;;;;5066680;28;20637;-78
2022/02/13 02:30:33;;;;;;;5.45;3.05;;;;;8.20;101443.00;;;;5065914;28;20226;-78
2022/02/13 02:33:00;;;;;;;6.13;3.10;;;;;8.10;101437.00;;;;5070475;28;20198;-78
2022/02/13 02:35:28;;;;;;;4.63;2.88;;;;;8.10;101430.00;;;;5087009;28;20197;-78
2022/02/13 02:37:55;;;;;;;5.13;2.95;;;;;8.10;101432.00;;;;5071877;28;20205;-78
2022/02/13 02:40:24;;;;;;;4.75;3.05;;;;;8.10;101427.00;;;;5075487;28;20594;-78
2022/02/13 02:42:51;;;;;;;6.30;3.20;;;;;8.10;101423.00;;;;5069013;28;20300;-78
2022/02/13 02:45:18;;;;;;;4.75;2.78;;;;;8.10;101423.00;;;;5069595;28;20203;-78
2022/02/13 02:47:45;;;;;;;6.65;3.35;;;;;8.10;101409.00;;;;5074566;28;20205;-78
2022/02/13 02:50:14;;;;;;;4.30;2.50;;;;;8.00;101415.00;;;;5067780;28;21039;-78
2022/02/13 02:52:42;;;;;;;5.13;3.17;;;;;8.00;101408.00;;;;5077203;28;20192;-78
2022/02/13 02:55:10;;;;;;;3.55;2.83;;;;;8.00;101398.00;;;;5067161;28;20191;-77
2022/02/13 02:57:38;;;;;;;4.22;2.88;;;;;8.00;101400.00;;;;5082833;28;20202;-77
2022/02/13 03:00:07;;;;;;;4.88;3.05;;;;;8.00;101401.00;;;;5090445;28;20209;-78
2022/02/13 03:02:35;;;;;;;4.47;2.90;;;;;8.00;101388.00;;;;5072155;28;20202;-78
2022/02/13 03:05:03;;;;;;;4.53;2.95;;;;;8.00;101387.00;;;;5066488;28;20410;-79
2022/02/13 03:07:31;;;;;;;5.07;3.25;;;;;8.00;101387.00;;;;5072274;28;20202;-79
2022/02/13 03:09:58;;;;;;;4.03;2.78;;;;;8.00;101379.00;;;;5077556;28;20222;-79
2022/02/13 03:12:25;;;;;;;5.68;2.92;;;;;8.00;101379.00;;;;5081113;28;20198;-79
2022/02/13 03:14:54;;;;;;;5.13;2.63;;;;;7.90;101379.00;;;;5085449;28;20230;-80
2022/02/13 03:17:21;;;;;;;4.32;2.53;;;;;8.00;101379.00;;;;5070579;28;20202;-79
2022/02/13 03:19:48;;;;;;;4.70;2.70;;;;;8.00;101376.00;;;;5077976;28;20202;-79
2022/02/13 03:22:16;;;;;;;3.92;2.50;;;;;7.90;101372.00;;;;5083950;28;20583;-79
2022/02/13 03:24:43;;;;;;;4.78;2.95;;;;;7.90;101370.00;;;;5074240;28;20202;-78
2022/02/13 03:27:10;;;;;;;6.28;2.72;;;;;7.90;101365.00;;;;5076635;28;20633;-79
2022/02/13 03:29:37;;;;;;;5.85;3.30;;;;;7.90;101351.00;;;;5088743;28;20605;-79
2022/02/13 03:32:07;;;;;;;5.60;3.38;;;;;7.90;101355.00;;;;5070190;28;20206;-79
2022/02/13 03:34:35;;;;;;;3.63;2.17;;;;;7.90;101345.00;;;;5075828;28;20333;-79
2022/02/13 03:37:02;;;;;;;5.47;2.60;;;;;7.90;101338.00;;;;5075322;28;20241;-79
2022/02/13 03:39:29;;;;;;;6.10;3.40;;;;;7.90;101338.00;;;;5069620;28;20203;-79
2022/02/13 03:41:56;;;;;;;5.30;2.88;;;;;7.90;101326.00;;;;5078315;28;20286;-79
2022/02/13 03:44:24;;;;;;;4.30;2.60;;;;;7.90;101326.00;;;;5072993;28;20214;-79
2022/02/13 03:46:51;;;;;;;6.40;3.22;;;;;7.90;101326.00;;;;5073283;28;20206;-79
2022/02/13 03:49:20;;;;;;;3.97;2.88;;;;;7.90;101325.00;;;;5073314;28;20202;-79
2022/02/13 03:51:47;;;;;;;4.95;2.67;;;;;7.90;101319.00;;;;5071241;28;20763;-78
2022/02/13 03:54:15;;;;;;;4.05;2.28;;;;;7.90;101324.00;;;;5083184;28;20206;-79
2022/02/13 03:56:42;;;;;;;3.25;2.53;;;;;7.90;101321.00;;;;5082408;28;20199;-79
2022/02/13 03:59:10;;;;;;;5.05;2.63;;;;;7.90;101315.00;;;;5070887;28;20582;-79
2022/02/13 04:01:37;;;;;;;3.83;2.72;;;;;7.90;101311.00;;;;5068686;28;20536;-79
2022/02/13 04:04:05;;;;;;;4.38;2.35;;;;;7.90;101312.00;;;;5083408;28;20202;-79
2022/02/13 04:06:34;;;;;;;4.97;2.70;;;;;7.90;101314.00;;;;5093513;28;20256;-79
2022/02/13 04:09:02;;;;;;;5.50;2.75;;;;;7.90;101299.00;;;;5075049;28;20195;-79
2022/02/13 04:11:29;;;;;;;3.78;2.70;;;;;7.90;101300.00;;;;5075699;28;20811;-78
2022/02/13 04:13:56;;;;;;;5.43;2.65;;;;;7.80;101289.00;;;;5073111;28;20249;-79
2022/02/13 04:16:23;;;;;;;4.30;2.65;;;;;7.80;101301.00;;;;5069062;28;20238;-79
2022/02/13 04:18:51;;;;;;;4.18;2.35;;;;;7.80;101289.00;;;;5075627;28;20195;-80
2022/02/13 04:21:19;;;;;;;4.57;2.75;;;;;7.80;101298.00;;;;5075281;28;20264;-79
2022/02/13 04:23:47;;;;;;;3.58;2.53;;;;;7.80;101292.00;;;;5070058;28;20203;-79
2022/02/13 04:26:14;;;;;;;4.47;2.25;;;;;7.80;101300.00;;;;5079714;28;20255;-79
2022/02/13 04:28:42;;;;;;;3.90;2.35;;;;;7.80;101295.00;;;;5080980;28;20259;-80
2022/02/13 04:31:09;;;;;;;5.32;2.92;;;;;7.80;101292.00;;;;5068937;28;20713;-79
2022/02/13 04:33:36;;;;;;;6.57;2.60;;;;;7.80;101280.00;;;;5068728;28;20195;-79
2022/02/13 04:36:04;;;;;;;3.67;2.35;;;;;7.80;101290.00;;;;5069503;28;20218;-79
2022/02/13 04:38:31;;;;;;;6.68;2.70;;;;;7.80;101268.00;;;;5070444;28;20265;-79
2022/02/13 04:41:00;;;;;;;5.20;2.85;;;;;7.80;101278.00;;;;5075537;28;20641;-79
2022/02/13 04:43:28;;;;;;;6.03;3.08;;;;;7.80;101278.00;;;;5082874;28;20670;-79
2022/02/13 04:45:56;;;;;;;3.65;2.50;;;;;7.80;101278.00;;;;5078321;28;20647;-80
2022/02/13 04:48:23;;;;;;;5.60;2.53;;;;;7.80;101282.00;;;;5068978;28;20214;-79
2022/02/13 04:50:50;;;;;;;4.03;2.60;;;;;7.80;101286.00;;;;5071263;28;20229;-79
2022/02/13 04:53:17;;;;;;;4.45;3.03;;;;;7.80;101287.00;;;;5081599;28;20252;-79
2022/02/13 04:55:45;;;;;;;3.75;2.13;;;;;7.80;101289.00;;;;5076652;28;20573;-79
2022/02/13 04:58:13;;;;;;;3.88;2.35;;;;;7.70;101293.00;;;;5084775;28;20277;-79
2022/02/13 05:00:41;;;;;;;4.20;2.65;;;;;7.80;101288.00;;;;5071355;28;20203;-79
2022/02/13 05:03:09;;;;;;;4.05;2.53;;;;;7.80;101292.00;;;;5067801;28;20705;-79
2022/02/13 05:05:36;;;;;;;4.68;2.40;;;;;7.80;101283.00;;;;5068268;28;20229;-79
2022/02/13 05:08:03;;;;;;;4.72;2.75;;;;;7.80;101279.00;;;;5069537;28;20324;-79
2022/02/13 05:10:31;;;;;;;3.88;2.53;;;;;7.80;101282.00;;;;5076729;28;20221;-79
2022/02/13 05:12:58;;;;;;;4.13;2.28;;;;;7.80;101272.00;;;;5087331;28;20222;-79
2022/02/13 05:15:26;;;;;;;4.97;2.47;;;;;7.80;101265.00;;;;5079457;28;20221;-79
2022/02/13 05:17:54;;;;;;;7.03;2.50;;;;;7.80;101274.00;;;;5080245;28;20205;-79
2022/02/13 05:20:21;;;;;;;4.47;2.63;;;;;7.80;101264.00;;;;5078143;28;20703;-79
2022/02/13 05:22:48;;;;;;;5.03;2.67;;;;;7.80;101251.00;;;;5073777;28;20559;-79
2022/02/13 05:25:16;;;;;;;5.13;2.72;;;;;7.80;101249.00;;;;5072678;28;20194;-79
2022/02/13 05:27:43;;;;;;;4.43;2.70;;;;;7.80;101241.00;;;;5077807;28;20199;-79
2022/02/13 05:30:11;;;;;;;3.92;2.40;;;;;7.80;101238.00;;;;5074614;28;20246;-79
2022/02/13 05:32:39;;;;;;;4.00;2.70;;;;;7.80;101234.00;;;;5080760;28;20327;-79
2022/02/13 05:35:07;;;;;;;6.18;3.03;;;;;7.80;101234.00;;;;5067510;28;20198;-79
2022/02/13 05:37:35;;;;;;;3.85;2.42;;;;;7.80;101234.00;;;;5072323;28;20917;-79
2022/02/13 05:40:02;;;;;;;4.18;2.40;;;;;7.80;101234.00;;;;5077765;28;20578;-79
2022/02/13 05:42:30;;;;;;;3.15;2.42;;;;;7.90;101239.00;;;;5068745;28;20207;-79
2022/02/13 05:44:57;;;;;;;3.05;2.38;;;;;7.90;101223.00;;;;5070733;28;20206;-79
2022/02/13 05:47:24;;;;;;;2.85;2.35;;;;;7.90;101221.00;;;;5074975;28;20198;-79
2022/02/13 05:49:53;;;;;;;5.00;2.58;;;;;7.90;101216.00;;;;5067057;28;20205;-81
2022/02/13 05:52:20;;;;;;;5.90;3.15;;;;;7.90;101219.00;;;;5082367;28;20213;-80
2022/02/13 05:54:48;;;;;;;4.97;2.88;;;;;7.90;101221.00;;;;5068198;28;20206;-80
2022/02/13 05:57:15;;;;;;;4.85;2.47;;;;;7.90;101224.00;;;;5074136;28;20202;-81
2022/02/13 05:59:42;;;;;;;3.92;2.28;;;;;7.90;101212.00;;;;5074039;28;20614;-80
2022/02/13 06:02:10;;;;;;;4.28;2.65;;;;;7.90;101203.00;;;;5076454;28;20288;-80
2022/02/13 06:04:37;;;;;;;4.03;2.60;;;;;7.90;101203.00;;;;5071328;28;20653;-80
2022/02/13 06:07:06;;;;;;;3.10;2.20;;;;;7.90;101209.00;;;;5084088;28;20281;-81
2022/02/13 06:09:33;;;;;;;5.10;2.92;;;;;7.90;101201.00;;;;5076334;28;20264;-81
2022/02/13 06:12:00;;;;;;;2.58;2.10;;;;;7.90;101197.00;;;;5074253;28;20641;-80
2022/02/13 06:14:27;;;;;;;3.40;2.70;;;;;7.90;101195.00;;;;5067228;28;20206;-80
2022/02/13 06:16:55;;;;;;;5.22;2.22;;;;;7.90;101184.00;;;;5076125;28;20343;-80
2022/02/13 06:19:23;;;;;;;3.30;2.20;;;;;7.90;101184.00;;;;5075975;28;20295;-81
2022/02/13 06:21:50;;;;;;;4.47;2.92;;;;;7.90;101178.00;;;;5066752;28;20230;-81
2022/02/13 06:24:18;;;;;;;3.95;2.72;;;;;7.90;101186.00;;;;5066596;28;20253;-80
2022/02/13 06:26:46;;;;;;;6.45;2.80;;;;;7.90;101182.00;;;;5078880;28;20205;-81
2022/02/13 06:29:14;;;;;;;4.18;2.40;;;;;7.90;101172.00;;;;5076444;28;20195;-81
2022/02/13 06:31:42;;;;;;;3.97;2.45;;;;;7.90;101177.00;;;;5070829;28;20221;-81
2022/02/13 06:34:09;;;;;;;4.65;2.35;;;;;7.90;101175.00;;;;5072843;28;20391;-79
2022/02/13 06:36:37;;;;;;;3.40;2.38;;;;;7.90;101172.00;;;;5074025;28;20217;-80
2022/02/13 06:39:05;;;;;;;4.57;2.80;;;;;7.90;101167.00;;;;5067335;28;20203;-80
2022/02/13 06:41:33;;;;;;;4.53;2.50;;;;;8.00;101166.00;;;;5075352;28;20278;-80
2022/02/13 06:44:01;;;;;;;4.13;2.55;;;;;8.00;101172.00;;;;5073511;28;20197;-81
2022/02/13 06:46:28;;;;;;;3.67;2.60;;;;;8.00;101164.00;;;;5082898;28;20202;-80
2022/02/13 06:48:55;;;;;;;3.17;2.50;;;;;8.10;101170.00;;;;5070547;28;20199;-81
2022/02/13 06:51:22;;;;;;;2.95;1.98;;;;;8.10;101166.00;;;;5080062;28;20218;-80
2022/02/13 06:53:50;;;;;;;4.80;2.45;;;;;8.10;101158.00;;;;5075908;28;21034;-81
2022/02/13 06:56:17;;;;;;;5.65;3.15;;;;;8.10;101155.00;;;;5080064;28;20201;-81
2022/02/13 06:58:45;;;;;;;4.93;2.97;;;;;8.10;101147.00;;;;5072902;28;20212;-81
2022/02/13 07:01:14;;;;;;;4.55;2.72;;;;;8.20;101143.00;;;;5076388;28;20195;-80
2022/02/13 07:03:41;;;;;;;6.15;2.58;;;;;8.20;101147.00;;;;5070572;28;20203;-81
2022/02/13 07:06:08;;;;;;;3.88;2.72;;;;;8.20;101145.00;;;;5069988;28;20207;-81
2022/02/13 07:08:36;;;;;;;6.13;2.65;;;;;8.20;101143.00;;;;5078915;28;20207;-80
2022/02/13 07:11:03;;;;;;;4.07;2.78;;;;;8.20;101146.00;;;;5094813;28;20229;-81
2022/02/13 07:13:31;;;;;;;4.75;2.53;;;;;8.20;101148.00;;;;5081775;28;20256;-81
2022/02/13 07:16:01;;;;;;;5.85;3.35;;;;;8.30;101151.00;;;;5069793;28;20296;-82
2022/02/13 07:18:28;;;;;;;6.03;2.92;;;;;8.30;101151.00;;;;5070080;28;20226;-80
2022/02/13 07:20:55;;;;;;;3.90;2.80;;;;;8.40;101147.00;;;;5069018;28;20202;-80
2022/02/13 07:23:23;;;;;;;4.20;2.72;;;;;8.40;101151.00;;;;5087545;28;20193;-82
2022/02/13 07:25:50;;;;;;;3.58;2.45;;;;;8.40;101151.00;;;;5083267;28;20198;-81
2022/02/13 07:31:03;;;;;;;4.78;2.58;;;;;8.50;101145.00;;;;5074308;28;20213;-81
2022/02/13 07:33:31;;;;;;;3.90;2.60;;;;;8.60;101146.00;;;;5081912;28;20206;-81
2022/02/13 07:35:59;;;;;;;3.33;2.25;;;;;8.70;101136.00;;;;5081513;28;20210;-81
2022/02/13 07:38:29;;;;;;;3.65;2.03;;;;;8.70;101138.00;;;;5075223;28;20690;-81
2022/02/13 07:40:57;;;;;;;7.05;2.70;;;;;8.80;101142.00;;;;5081592;28;20195;-82
2022/02/13 07:43:24;;;;;;;5.15;2.60;;;;;8.80;101140.00;;;;5070160;28;20202;-81
2022/02/13 07:45:51;;;;;;;6.95;2.40;;;;;8.90;101135.00;;;;5080591;28;20573;-81
2022/02/13 07:48:20;;;;;;;2.85;2.00;;;;;8.90;101142.00;;;;5076645;28;20199;-82
2022/02/13 07:50:48;;;;;;;3.47;2.58;;;;;8.90;101142.00;;;;5076360;28;20222;-81
2022/02/13 07:53:16;;;;;;;4.05;2.70;;;;;9.00;101136.00;;;;5085898;28;20229;-81
2022/02/13 07:55:43;;;;;;;3.97;2.53;;;;;9.00;101138.00;;;;5079727;28;20195;-81
2022/02/13 07:58:10;;;;;;;2.65;2.20;;;;;9.10;101147.00;;;;5078383;28;20239;-80
2022/02/13 08:00:38;;;;;;;2.78;2.20;;;;;9.10;101150.00;;;;5076576;28;20206;-80
2022/02/13 08:03:05;;;;;;;5.00;2.55;;;;;9.20;101140.00;;;;5083828;28;20249;-79
2022/02/13 08:05:34;;;;;;;3.50;2.63;;;;;9.20;101138.00;;;;5074620;28;20202;-79
2022/02/13 08:08:01;;;;;;;3.33;2.53;;;;;9.30;101135.00;;;;5068500;28;20207;-79
2022/02/13 08:10:29;;;;;;;4.63;2.60;;;;;9.30;101142.00;;;;5085164;28;20205;-79
2022/02/13 08:12:56;;;;;;;6.22;2.55;;;;;9.40;101132.00;;;;5084194;28;20199;-79
2022/02/13 08:15:24;;;;;;;3.35;2.83;;;;;9.40;101129.00;;;;5081803;28;20222;-79
2022/02/13 08:17:51;;;;;;;3.30;2.47;;;;;9.50;101127.00;;;;5080181;28;20273;-80
2022/02/13 08:20:18;;;;;;;4.07;2.35;;;;;9.50;101123.00;;;;5074042;28;20648;-78
2022/02/13 08:22:47;;;;;;;4.88;3.05;;;;;9.50;101130.00;;;;5076276;28;20198;-79
2022/02/13 08:25:14;;;;;;;2.63;2.20;;;;;9.60;101126.00;;;;5072442;28;20604;-79
2022/02/13 08:27:41;;;;;;;4.63;2.97;;;;;9.70;101122.00;;;;5073085;28;20191;-80
2022/02/13 08:30:10;;;;;;;4.00;2.97;;;;;9.70;101116.00;;;;5085138;28;20210;-79
2022/02/13 08:32:37;;;;;;;4.95;2.65;;;;;9.80;101122.00;;;;5084864;28;20255;-80
2022/02/13 08:35:05;;;;;;;5.13;2.47;;;;;9.80;101115.00;;;;5075826;28;20217;-81
2022/02/13 08:37:32;;;;;;;4.13;3.00;;;;;9.90;101116.00;;;;5070399;28;20219;-81
2022/02/13 08:40:01;;;;;;;4.13;2.67;;;;;9.90;101109.00;;;;5072014;28;20195;-79
2022/02/13 08:42:28;;;;;;;4.20;2.75;;;;;10.00;101103.00;;;;5076571;28;20210;-78
2022/02/13 08:44:55;;;;;;;3.50;2.70;;;;;10.10;101108.00;;;;5075338;28;20197;-79
2022/02/13 08:47:23;;;;;;;4.43;2.65;;;;;10.10;101108.00;;;;5081790;28;20190;-80
2022/02/13 08:49:50;;;;;;;4.53;2.90;;;;;10.20;101101.00;;;;5078589;28;20194;-80
2022/02/13 08:52:17;;;;;;;4.53;3.00;;;;;10.20;101094.00;;;;5075179;28;20684;-81
2022/02/13 08:54:45;;;;;;;3.55;2.60;;;;;10.20;101085.00;;;;5073894;28;20203;-81
2022/02/13 08:57:13;;;;;;;3.70;2.65;;;;;10.30;101083.00;;;;5073482;28;20201;-81
2022/02/13 08:59:41;;;;;;;3.58;2.50;;;;;10.40;101080.00;;;;5084220;28;20253;-81
2022/02/13 09:02:09;;;;;;;3.80;2.58;;;;;10.40;101082.00;;;;5075421;28;20202;-80
2022/02/13 09:04:37;;;;;;;4.95;2.65;;;;;10.50;101083.00;;;;5082797;28;20202;-80
2022/02/13 09:07:05;;;;;;;3.92;2.60;;;;;10.50;101067.00;;;;5077656;28;20260;-81
2022/02/13 09:09:33;;;;;;;4.35;2.80;;;;;10.60;101068.00;;;;5075695;28;20543;-80
2022/02/13 09:12:00;;;;;;;4.22;3.30;;;;;10.70;101061.00;;;;5084461;28;20678;-80
2022/02/13 09:14:28;;;;;;;3.78;2.72;;;;;10.70;101054.00;;;;5074403;28;20743;-79
2022/02/13 09:16:56;;;;;;;4.05;2.97;;;;;10.80;101054.00;;;;5069969;28;20226;-78
2022/02/13 09:19:23;;;;;;;4.32;2.97;;;;;10.80;101043.00;;;;5072797;28;20202;-79
2022/02/13 09:21:52;;;;;;;3.70;2.90;;;;;10.90;101046.00;;;;5085446;28;20199;-80
2022/02/13 09:24:20;;;;;;;3.97;3.00;;;;;10.90;101040.00;;;;5080916;28;20198;-80
2022/02/13 09:26:47;;;;;;;4.50;2.88;;;;;11.00;101039.00;;;;5078750;28;20233;-81
2022/02/13 09:29:14;;;;;;;3.88;3.10;;;;;11.00;101039.00;;;;5068976;28;20210;-81
2022/02/13 09:31:43;;;;;;;4.00;2.90;;;;;11.00;101035.00;;;;5068246;28;20720;-82
2022/02/13 09:34:12;;;;;;;4.30;2.95;;;;;11.10;101032.00;;;;5069012;28;20195;-82
2022/02/13 09:36:40;;;;;;;4.65;3.00;;;;;11.10;101034.00;;;;5080967;28;20206;-81
2022/02/13 09:39:07;;;;;;;4.25;3.10;;;;;11.10;101028.00;;;;5068493;28;20388;-81
2022/02/13 09:41:34;;;;;;;4.53;3.00;;;;;11.20;101033.00;;;;5068045;28;20545;-81
2022/02/13 09:44:02;;;;;;;4.25;3.28;;;;;11.20;101028.00;;;;5073703;28;20222;-81
2022/02/13 09:46:30;;;;;;;3.65;2.45;;;;;11.30;101025.00;;;;5069192;28;20245;-82
2022/02/13 09:48:59;;;;;;;4.50;2.67;;;;;11.30;101017.00;;;;5072541;28;20195;-82
2022/02/13 09:51:27;;;;;;;4.32;2.75;;;;;11.40;101013.00;;;;5081959;28;20226;-81
2022/02/13 09:53:54;;;;;;;3.63;2.70;;;;;11.40;101014.00;;;;5077686;28;20660;-81
2022/02/13 09:56:21;;;;;;;4.22;2.72;;;;;11.50;101000.00;;;;5074334;28;20669;-81
2022/02/13 09:58:49;;;;;;;3.85;2.75;;;;;11.50;101003.00;;;;5086905;28;20190;-81
2022/02/13 10:01:17;;;;;;;3.58;2.78;;;;;11.60;101000.00;;;;5070576;28;20209;-80
2022/02/13 10:03:49;;;;;;;4.40;3.35;;;;;11.60;101006.00;;;;5080575;28;20204;-81
2022/02/13 10:06:25;;;;;;;4.03;2.90;;;;;11.60;100998.00;;;;5082900;28;20195;-80
2022/02/13 10:08:54;;;;;;;5.22;3.13;;;;;11.70;100996.00;;;;5067119;28;20656;-79
2022/02/13 10:11:24;;;;;;;5.25;3.10;;;;;11.70;100986.00;;;;5068604;28;20198;-80
2022/02/13 10:13:54;;;;;;;3.88;2.72;;;;;11.70;100985.00;;;;5080915;28;20653;-80
2022/02/13 10:16:24;;;;;;;4.15;3.15;;;;;11.80;100980.00;;;;5074904;28;20319;-80
2022/02/13 10:18:59;;;;;;;3.88;2.67;;;;;11.80;100982.00;;;;5078269;28;20313;-81
2022/02/13 10:21:39;;;;;;;3.88;2.95;;;;;11.80;100986.00;;;;5069321;28;20672;-79
2022/02/13 10:24:28;;;;;;;3.25;2.80;;;;;11.80;100989.00;;;;5068599;28;20264;-80
2022/02/13 10:27:07;;;;;;;5.63;2.95;;;;;11.90;100985.00;;;;5079244;28;20826;-81
2022/02/13 10:29:37;;;;;;;3.42;2.75;;;;;12.00;100989.00;;;;5087320;28;20205;-80
2022/02/13 10:32:19;;;;;;;3.90;2.70;;;;;12.00;100982.00;;;;5076312;28;20297;-79
2022/02/13 10:35:03;;;;;;;3.97;2.40;;;;;12.10;100977.00;;;;5078560;28;20190;-79
2022/02/13 10:37:44;;;;;;;4.55;2.90;;;;;12.20;100986.00;;;;5075795;28;20600;-79
2022/02/13 10:40:14;;;;;;;3.75;2.58;;;;;12.30;100973.00;;;;5081869;28;20668;-80
2022/02/13 10:42:42;;;;;;;4.13;2.67;;;;;12.40;100985.00;;;;5070592;28;20191;-79
2022/02/13 10:45:20;;;;;;;3.00;2.63;;;;;12.40;100981.00;;;;5067808;28;20206;-80
2022/02/13 10:47:49;;;;;;;4.97;3.13;;;;;12.50;100985.00;;;;5070047;28;20198;-79
2022/02/13 10:50:18;;;;;;;4.90;3.15;;;;;12.60;100984.00;;;;5072654;28;20202;-81
2022/02/13 10:52:48;;;;;;;3.72;3.03;;;;;12.60;100985.00;;;;5084582;28;20225;-80
2022/02/13 10:55:16;;;;;;;5.00;3.22;;;;;12.70;100974.00;;;;5085457;28;20675;-79
2022/02/13 10:57:44;;;;;;;5.07;3.33;;;;;12.70;100957.00;;;;5099946;28;20205;-78
2022/02/13 11:00:14;;;;;;;4.82;3.03;;;;;12.80;100955.00;;;;5075396;28;20195;-78
2022/02/13 11:02:41;;;;;;;3.95;2.50;;;;;12.80;100952.00;;;;5072775;28;20297;-79
2022/02/13 11:05:09;;;;;;;3.78;2.63;;;;;12.90;100945.00;;;;5074720;28;20226;-82
2022/02/13 11:07:41;;;;;;;2.60;2.22;;;;;13.00;100938.00;;;;5068348;28;20232;-79
2022/02/13 11:10:15;;;;;;;5.20;2.70;;;;;13.00;100951.00;;;;5067222;28;20631;-79
2022/02/13 11:12:44;;;;;;;4.75;2.67;;;;;13.10;100939.00;;;;5067443;28;20225;-78
2022/02/13 11:15:20;;;;;;;3.65;2.55;;;;;13.10;100939.00;;;;5067505;28;20255;-78
2022/02/13 11:17:48;;;;;;;3.20;2.28;;;;;13.20;100935.00;;;;5081365;28;20201;-77
2022/02/13 11:20:19;;;;;;;3.47;2.80;;;;;13.30;100929.00;;;;5077184;28;20737;-78
2022/02/13 11:22:53;;;;;;;3.95;2.70;;;;;13.40;100919.00;;;;5075828;28;20191;-77
2022/02/13 11:25:48;;;;;;;5.03;2.88;;;;;13.40;100913.00;;;;5080162;28;20281;-77
2022/02/13 11:28:16;;;;;;;3.28;2.53;;;;;13.50;100905.00;;;;5088217;28;20288;-77
2022/02/13 11:30:45;;;;;;;4.00;2.90;;;;;13.50;100900.00;;;;5085627;28;20202;-78
2022/02/13 11:33:42;;;;;;;2.65;2.42;;;;;13.60;100900.00;;;;5083961;28;20234;-76
2022/02/13 11:36:11;;;;;;;4.10;2.47;;;;;13.70;100893.00;;;;5076544;28;20219;-79
2022/02/13 11:38:57;;;;;;;3.38;2.67;;;;;13.70;100885.00;;;;5076191;28;20195;-78
2022/02/13 11:42:10;;;;;;;3.08;2.38;;;;;13.70;100885.00;;;;5074156;28;20636;-77
2022/02/13 11:44:44;;;;;;;3.30;2.33;;;;;13.80;100871.00;;;;5078045;28;20202;-78
2022/02/13 11:47:13;;;;;;;2.92;2.25;;;;;13.90;100871.00;;;;5087122;28;20210;-78
2022/02/13 11:50:25;;;;;;;3.55;2.58;;;;;13.90;100854.00;;;;5077632;28;20205;-78
2022/02/13 11:53:06;;;;;;;3.55;2.40;;;;;14.10;100848.00;;;;5092556;28;20219;-79
2022/02/13 11:55:35;;;;;;;3.72;2.65;;;;;14.20;100844.00;;;;5078493;28;20196;-78
2022/02/13 11:58:08;;;;;;;4.03;3.08;;;;;14.30;100839.00;;;;5081020;28;20217;-78
2022/02/13 12:00:48;;;;;;;2.85;2.40;;;;;14.30;100837.00;;;;5084970;28;20207;-78
2022/02/13 12:03:27;;;;;;;4.10;2.67;;;;;14.50;100829.00;;;;5094925;28;20269;-79
2022/02/13 12:06:24;;;;;;;8.60;5.72;;;;;14.50;100816.00;;;;5083246;28;20214;-79
2022/02/13 12:08:51;;;;;;;4.70;3.63;;;;;14.80;100819.00;;;;5079461;28;20194;-79
2022/02/13 12:11:18;;;;;;;3.45;2.65;;;;;14.90;100828.00;;;;5083746;28;20293;-79
2022/02/13 12:13:46;;;;;;;3.15;2.70;;;;;14.90;100812.00;;;;5087445;28;20218;-78
2022/02/13 12:16:15;;;;;;;3.47;3.00;;;;;15.00;100803.00;;;;5091810;28;20497;-79
2022/02/13 12:18:50;;;;;;;3.28;2.47;;;;;15.10;100797.00;;;;5099930;28;20191;-78
2022/02/13 12:21:17;;;;;;;3.50;2.58;;;;;15.10;100794.00;;;;5081675;28;20201;-78
2022/02/13 12:23:44;;;;;;;5.15;3.20;;;;;15.20;100790.00;;;;5081793;28;20201;-78
2022/02/13 12:26:20;;;;;;;3.00;2.20;;;;;15.20;100778.00;;;;5080631;28;20290;-77